sensor_id;sensor_type;location;lat;lon;timestamp;P1;durP1;ratioP1;P2;durP2;ratioP2
29570;SDS011;16814;52.118;11.436;2023-12-22T00:01:28;18.63;;;3.42;;
29570;SDS011;16814;52.118;11.436;2023-12-22T00:03:57;22.30;;;3.28;;
29570;SDS011;16814;52.118;11.436;2023-12-22T00:06:23;22.10;;;3.10;;
29570;SDS011;16814;52.118;11.436;2023-12-22T00:08:50;18.50;;;2.60;;
29570;SDS011;16814;52.118;11.436;2023-12-22T00:11:16;19.15;;;2.67;;
29570;SDS011;16814;52.118;11.436;2023-12-22T00:13:44;20.38;;;3.25;;
29570;SDS011;16814;52.118;11.436;2023-12-22T00:16:11;14.80;;;2.65;;
29570;SDS011;16814;52.118;11.436;2023-12-22T00:18:38;15.38;;;2.88;;
29570;SDS011;16814;52.118;11.436;2023-12-22T00:21:09;14.98;;;2.67;;
29570;SDS011;16814;52.118;11.436;2023-12-22T00:23:38;17.27;;;2.65;;
29570;SDS011;16814;52.118;11.436;2023-12-22T00:26:05;17.83;;;3.00;;
29570;SDS011;16814;52.118;11.436;2023-12-22T00:28:32;14.88;;;2.80;;
29570;SDS011;16814;52.118;11.436;2023-12-22T00:31:00;19.30;;;3.35;;
29570;SDS011;16814;52.118;11.436;2023-12-22T00:33:25;15.85;;;2.63;;
29570;SDS011;16814;52.118;11.436;2023-12-22T00:35:51;18.47;;;2.50;;
29570;SDS011;16814;52.118;11.436;2023-12-22T00:38:18;13.23;;;2.42;;
29570;SDS011;16814;52.118;11.436;2023-12-22T00:40:46;12.98;;;2.85;;
29570;SDS011;16814;52.118;11.436;2023-12-22T00:43:13;17.27;;;3.00;;
29570;SDS011;16814;52.118;11.436;2023-12-22T00:45:38;14.80;;;3.00;;
29570;SDS011;16814;52.118;11.436;2023-12-22T00:48:05;13.23;;;2.45;;
29570;SDS011;16814;52.118;11.436;2023-12-22T00:50:31;18.60;;;3.57;;
29570;SDS011;16814;52.118;11.436;2023-12-22T00:52:57;17.30;;;2.67;;
29570;SDS011;16814;52.118;11.436;2023-12-22T00:55:25;19.23;;;3.42;;
29570;SDS011;16814;52.118;11.436;2023-12-22T00:57:50;22.20;;;3.55;;
29570;SDS011;16814;52.118;11.436;2023-12-22T01:00:18;28.58;;;3.65;;
29570;SDS011;16814;52.118;11.436;2023-12-22T01:02:45;30.58;;;3.65;;
29570;SDS011;16814;52.118;11.436;2023-12-22T01:05:12;21.85;;;4.15;;
29570;SDS011;16814;52.118;11.436;2023-12-22T01:07:37;25.25;;;4.68;;
29570;SDS011;16814;52.118;11.436;2023-12-22T01:10:04;19.77;;;3.70;;
29570;SDS011;16814;52.118;11.436;2023-12-22T01:12:30;19.90;;;3.83;;
29570;SDS011;16814;52.118;11.436;2023-12-22T01:14:57;30.83;;;3.85;;
29570;SDS011;16814;52.118;11.436;2023-12-22T01:17:23;23.98;;;4.30;;
29570;SDS011;16814;52.118;11.436;2023-12-22T01:19:50;31.10;;;4.13;;
29570;SDS011;16814;52.118;11.436;2023-12-22T01:22:17;25.67;;;4.00;;
29570;SDS011;16814;52.118;11.436;2023-12-22T01:24:44;27.00;;;4.60;;
29570;SDS011;16814;52.118;11.436;2023-12-22T01:27:10;29.60;;;4.87;;
29570;SDS011;16814;52.118;11.436;2023-12-22T01:29:39;22.30;;;3.90;;
29570;SDS011;16814;52.118;11.436;2023-12-22T01:32:05;24.58;;;4.45;;
29570;SDS011;16814;52.118;11.436;2023-12-22T01:34:34;32.95;;;5.07;;
29570;SDS011;16814;52.118;11.436;2023-12-22T01:37:02;29.77;;;4.10;;
29570;SDS011;16814;52.118;11.436;2023-12-22T01:39:29;27.20;;;4.00;;
29570;SDS011;16814;52.118;11.436;2023-12-22T01:41:54;27.02;;;4.18;;
29570;SDS011;16814;52.118;11.436;2023-12-22T01:44:20;24.88;;;4.40;;
29570;SDS011;16814;52.118;11.436;2023-12-22T01:46:47;36.53;;;4.67;;
29570;SDS011;16814;52.118;11.436;2023-12-22T01:49:14;32.58;;;4.40;;
29570;SDS011;16814;52.118;11.436;2023-12-22T01:51:40;34.58;;;5.25;;
29570;SDS011;16814;52.118;11.436;2023-12-22T01:54:06;28.45;;;4.43;;
29570;SDS011;16814;52.118;11.436;2023-12-22T01:56:35;34.63;;;5.03;;
29570;SDS011;16814;52.118;11.436;2023-12-22T01:59:03;28.02;;;4.95;;
29570;SDS011;16814;52.118;11.436;2023-12-22T02:01:32;28.13;;;4.15;;
29570;SDS011;16814;52.118;11.436;2023-12-22T02:03:59;28.88;;;4.10;;
29570;SDS011;16814;52.118;11.436;2023-12-22T02:06:25;26.40;;;3.88;;
29570;SDS011;16814;52.118;11.436;2023-12-22T02:08:54;25.85;;;3.83;;
29570;SDS011;16814;52.118;11.436;2023-12-22T02:11:22;23.35;;;3.88;;
29570;SDS011;16814;52.118;11.436;2023-12-22T02:13:50;25.13;;;3.93;;
29570;SDS011;16814;52.118;11.436;2023-12-22T02:16:20;24.88;;;3.88;;
29570;SDS011;16814;52.118;11.436;2023-12-22T02:19:15;16.98;;;3.33;;
29570;SDS011;16814;52.118;11.436;2023-12-22T02:22:06;21.25;;;3.38;;
29570;SDS011;16814;52.118;11.436;2023-12-22T02:24:34;24.02;;;3.42;;
29570;SDS011;16814;52.118;11.436;2023-12-22T02:27:04;23.13;;;3.20;;
29570;SDS011;16814;52.118;11.436;2023-12-22T02:29:46;19.65;;;3.25;;
29570;SDS011;16814;52.118;11.436;2023-12-22T02:32:21;21.77;;;3.45;;
29570;SDS011;16814;52.118;11.436;2023-12-22T02:34:52;21.70;;;3.58;;
29570;SDS011;16814;52.118;11.436;2023-12-22T02:37:21;20.35;;;3.28;;
29570;SDS011;16814;52.118;11.436;2023-12-22T02:39:50;25.55;;;3.70;;
29570;SDS011;16814;52.118;11.436;2023-12-22T02:42:17;19.60;;;3.37;;
29570;SDS011;16814;52.118;11.436;2023-12-22T02:44:45;24.52;;;3.80;;
29570;SDS011;16814;52.118;11.436;2023-12-22T02:47:12;20.38;;;3.20;;
29570;SDS011;16814;52.118;11.436;2023-12-22T02:49:39;21.70;;;3.30;;
29570;SDS011;16814;52.118;11.436;2023-12-22T02:52:04;17.40;;;2.87;;
29570;SDS011;16814;52.118;11.436;2023-12-22T02:54:30;16.48;;;3.33;;
29570;SDS011;16814;52.118;11.436;2023-12-22T02:56:58;21.60;;;3.15;;
29570;SDS011;16814;52.118;11.436;2023-12-22T02:59:26;23.02;;;3.22;;
29570;SDS011;16814;52.118;11.436;2023-12-22T03:01:54;19.00;;;2.75;;
29570;SDS011;16814;52.118;11.436;2023-12-22T03:04:22;22.15;;;3.55;;
29570;SDS011;16814;52.118;11.436;2023-12-22T03:06:47;21.92;;;3.22;;
29570;SDS011;16814;52.118;11.436;2023-12-22T03:09:14;17.52;;;3.00;;
29570;SDS011;16814;52.118;11.436;2023-12-22T03:11:41;26.15;;;3.47;;
29570;SDS011;16814;52.118;11.436;2023-12-22T03:14:09;15.85;;;2.80;;
29570;SDS011;16814;52.118;11.436;2023-12-22T03:16:36;16.25;;;2.83;;
29570;SDS011;16814;52.118;11.436;2023-12-22T03:19:02;19.63;;;3.83;;
29570;SDS011;16814;52.118;11.436;2023-12-22T03:21:28;22.00;;;3.50;;
29570;SDS011;16814;52.118;11.436;2023-12-22T03:23:56;14.77;;;2.70;;
29570;SDS011;16814;52.118;11.436;2023-12-22T03:26:22;18.00;;;3.40;;
29570;SDS011;16814;52.118;11.436;2023-12-22T03:28:47;12.85;;;2.42;;
29570;SDS011;16814;52.118;11.436;2023-12-22T03:31:14;14.73;;;2.33;;
29570;SDS011;16814;52.118;11.436;2023-12-22T03:33:42;16.75;;;2.63;;
29570;SDS011;16814;52.118;11.436;2023-12-22T03:36:09;15.80;;;2.42;;
29570;SDS011;16814;52.118;11.436;2023-12-22T03:38:36;19.17;;;3.10;;
29570;SDS011;16814;52.118;11.436;2023-12-22T03:41:03;17.83;;;3.13;;
29570;SDS011;16814;52.118;11.436;2023-12-22T03:43:29;18.30;;;2.83;;
29570;SDS011;16814;52.118;11.436;2023-12-22T03:45:56;21.75;;;2.50;;
29570;SDS011;16814;52.118;11.436;2023-12-22T03:48:22;14.60;;;2.58;;
29570;SDS011;16814;52.118;11.436;2023-12-22T03:50:49;15.90;;;2.60;;
29570;SDS011;16814;52.118;11.436;2023-12-22T03:53:17;21.55;;;3.33;;
29570;SDS011;16814;52.118;11.436;2023-12-22T03:55:42;14.60;;;2.40;;
29570;SDS011;16814;52.118;11.436;2023-12-22T03:58:09;17.88;;;2.45;;
29570;SDS011;16814;52.118;11.436;2023-12-22T04:00:36;15.40;;;2.40;;
29570;SDS011;16814;52.118;11.436;2023-12-22T04:03:03;14.77;;;2.03;;
29570;SDS011;16814;52.118;11.436;2023-12-22T04:05:29;14.45;;;2.40;;
29570;SDS011;16814;52.118;11.436;2023-12-22T04:07:56;13.95;;;2.40;;
29570;SDS011;16814;52.118;11.436;2023-12-22T04:10:24;13.85;;;2.38;;
29570;SDS011;16814;52.118;11.436;2023-12-22T04:12:51;15.18;;;2.15;;
29570;SDS011;16814;52.118;11.436;2023-12-22T04:15:17;11.88;;;1.92;;
29570;SDS011;16814;52.118;11.436;2023-12-22T04:17:43;11.27;;;2.00;;
29570;SDS011;16814;52.118;11.436;2023-12-22T04:20:11;9.35;;;1.50;;
29570;SDS011;16814;52.118;11.436;2023-12-22T04:22:38;9.77;;;1.65;;
29570;SDS011;16814;52.118;11.436;2023-12-22T04:25:04;9.40;;;1.60;;
29570;SDS011;16814;52.118;11.436;2023-12-22T04:27:31;8.57;;;1.48;;
29570;SDS011;16814;52.118;11.436;2023-12-22T04:29:58;14.55;;;1.98;;
29570;SDS011;16814;52.118;11.436;2023-12-22T04:32:25;11.03;;;1.87;;
29570;SDS011;16814;52.118;11.436;2023-12-22T04:34:53;12.40;;;1.70;;
29570;SDS011;16814;52.118;11.436;2023-12-22T04:37:20;14.85;;;2.42;;
29570;SDS011;16814;52.118;11.436;2023-12-22T04:39:47;9.05;;;1.83;;
29570;SDS011;16814;52.118;11.436;2023-12-22T04:42:12;10.20;;;1.75;;
29570;SDS011;16814;52.118;11.436;2023-12-22T04:44:38;11.05;;;2.20;;
29570;SDS011;16814;52.118;11.436;2023-12-22T04:47:05;7.63;;;1.57;;
29570;SDS011;16814;52.118;11.436;2023-12-22T04:49:33;11.70;;;1.60;;
29570;SDS011;16814;52.118;11.436;2023-12-22T04:52:00;11.93;;;1.87;;
29570;SDS011;16814;52.118;11.436;2023-12-22T04:54:25;11.43;;;2.40;;
29570;SDS011;16814;52.118;11.436;2023-12-22T04:56:53;16.42;;;2.50;;
29570;SDS011;16814;52.118;11.436;2023-12-22T04:59:20;19.45;;;2.78;;
29570;SDS011;16814;52.118;11.436;2023-12-22T05:01:45;18.20;;;2.90;;
29570;SDS011;16814;52.118;11.436;2023-12-22T05:04:14;18.35;;;2.40;;
29570;SDS011;16814;52.118;11.436;2023-12-22T05:06:41;21.77;;;2.72;;
29570;SDS011;16814;52.118;11.436;2023-12-22T05:09:07;29.75;;;4.10;;
29570;SDS011;16814;52.118;11.436;2023-12-22T05:11:34;17.48;;;3.20;;
29570;SDS011;16814;52.118;11.436;2023-12-22T05:14:02;20.30;;;3.08;;
29570;SDS011;16814;52.118;11.436;2023-12-22T05:16:28;18.55;;;3.22;;
29570;SDS011;16814;52.118;11.436;2023-12-22T05:19:02;18.25;;;2.78;;
29570;SDS011;16814;52.118;11.436;2023-12-22T05:21:29;22.52;;;3.83;;
29570;SDS011;16814;52.118;11.436;2023-12-22T05:23:58;22.30;;;3.25;;
29570;SDS011;16814;52.118;11.436;2023-12-22T05:26:24;18.27;;;2.95;;
29570;SDS011;16814;52.118;11.436;2023-12-22T05:28:51;19.40;;;3.40;;
29570;SDS011;16814;52.118;11.436;2023-12-22T05:31:17;24.20;;;3.75;;
29570;SDS011;16814;52.118;11.436;2023-12-22T05:33:44;21.92;;;3.53;;
29570;SDS011;16814;52.118;11.436;2023-12-22T05:36:09;17.27;;;2.60;;
29570;SDS011;16814;52.118;11.436;2023-12-22T05:38:38;25.58;;;3.70;;
29570;SDS011;16814;52.118;11.436;2023-12-22T05:41:05;12.10;;;2.58;;
29570;SDS011;16814;52.118;11.436;2023-12-22T05:43:33;21.33;;;3.30;;
29570;SDS011;16814;52.118;11.436;2023-12-22T05:45:59;19.30;;;2.55;;
29570;SDS011;16814;52.118;11.436;2023-12-22T05:48:25;15.48;;;2.28;;
29570;SDS011;16814;52.118;11.436;2023-12-22T05:50:57;13.48;;;2.33;;
29570;SDS011;16814;52.118;11.436;2023-12-22T05:53:24;17.90;;;2.53;;
29570;SDS011;16814;52.118;11.436;2023-12-22T05:55:51;12.55;;;2.03;;
29570;SDS011;16814;52.118;11.436;2023-12-22T05:58:19;14.43;;;2.17;;
29570;SDS011;16814;52.118;11.436;2023-12-22T06:00:45;14.93;;;2.22;;
29570;SDS011;16814;52.118;11.436;2023-12-22T06:03:11;15.57;;;2.20;;
29570;SDS011;16814;52.118;11.436;2023-12-22T06:05:40;15.13;;;2.20;;
29570;SDS011;16814;52.118;11.436;2023-12-22T06:08:07;12.27;;;2.40;;
29570;SDS011;16814;52.118;11.436;2023-12-22T06:10:34;14.50;;;2.35;;
29570;SDS011;16814;52.118;11.436;2023-12-22T06:13:02;13.75;;;2.17;;
29570;SDS011;16814;52.118;11.436;2023-12-22T06:15:29;12.07;;;2.17;;
29570;SDS011;16814;52.118;11.436;2023-12-22T06:17:57;8.35;;;1.65;;
29570;SDS011;16814;52.118;11.436;2023-12-22T06:20:25;7.50;;;1.70;;
29570;SDS011;16814;52.118;11.436;2023-12-22T06:22:51;5.83;;;1.10;;
29570;SDS011;16814;52.118;11.436;2023-12-22T06:25:18;5.82;;;1.40;;
29570;SDS011;16814;52.118;11.436;2023-12-22T06:27:46;4.85;;;0.90;;
29570;SDS011;16814;52.118;11.436;2023-12-22T06:30:14;2.97;;;0.70;;
29570;SDS011;16814;52.118;11.436;2023-12-22T06:32:41;1.87;;;0.50;;
29570;SDS011;16814;52.118;11.436;2023-12-22T06:35:09;2.22;;;0.77;;
29570;SDS011;16814;52.118;11.436;2023-12-22T06:37:45;1.35;;;0.70;;
29570;SDS011;16814;52.118;11.436;2023-12-22T06:40:11;5.68;;;1.00;;
29570;SDS011;16814;52.118;11.436;2023-12-22T06:42:39;4.65;;;0.80;;
29570;SDS011;16814;52.118;11.436;2023-12-22T06:45:06;3.72;;;0.82;;
29570;SDS011;16814;52.118;11.436;2023-12-22T06:47:33;5.32;;;1.00;;
29570;SDS011;16814;52.118;11.436;2023-12-22T06:50:01;8.10;;;1.50;;
29570;SDS011;16814;52.118;11.436;2023-12-22T06:52:28;5.60;;;0.90;;
29570;SDS011;16814;52.118;11.436;2023-12-22T06:54:57;5.15;;;0.90;;
29570;SDS011;16814;52.118;11.436;2023-12-22T06:57:23;9.50;;;1.70;;
29570;SDS011;16814;52.118;11.436;2023-12-22T06:59:50;5.38;;;1.30;;
29570;SDS011;16814;52.118;11.436;2023-12-22T07:02:18;6.60;;;1.60;;
29570;SDS011;16814;52.118;11.436;2023-12-22T07:05:01;13.43;;;1.85;;
29570;SDS011;16814;52.118;11.436;2023-12-22T07:07:50;9.50;;;2.50;;
29570;SDS011;16814;52.118;11.436;2023-12-22T07:10:17;15.70;;;2.13;;
29570;SDS011;16814;52.118;11.436;2023-12-22T07:12:44;14.55;;;2.35;;
29570;SDS011;16814;52.118;11.436;2023-12-22T07:15:11;14.38;;;2.22;;
29570;SDS011;16814;52.118;11.436;2023-12-22T07:17:38;13.88;;;2.38;;
29570;SDS011;16814;52.118;11.436;2023-12-22T07:20:03;15.47;;;2.67;;
29570;SDS011;16814;52.118;11.436;2023-12-22T07:22:34;16.15;;;2.85;;
29570;SDS011;16814;52.118;11.436;2023-12-22T07:25:01;12.77;;;1.67;;
29570;SDS011;16814;52.118;11.436;2023-12-22T07:27:28;7.67;;;1.80;;
29570;SDS011;16814;52.118;11.436;2023-12-22T07:29:55;7.32;;;1.10;;
29570;SDS011;16814;52.118;11.436;2023-12-22T07:32:21;5.80;;;1.33;;
29570;SDS011;16814;52.118;11.436;2023-12-22T07:34:49;8.55;;;1.20;;
29570;SDS011;16814;52.118;11.436;2023-12-22T07:37:14;4.70;;;1.10;;
29570;SDS011;16814;52.118;11.436;2023-12-22T07:39:40;9.68;;;0.90;;
29570;SDS011;16814;52.118;11.436;2023-12-22T07:42:10;4.18;;;0.70;;
29570;SDS011;16814;52.118;11.436;2023-12-22T07:44:38;5.00;;;0.80;;
29570;SDS011;16814;52.118;11.436;2023-12-22T07:47:04;4.28;;;0.90;;
29570;SDS011;16814;52.118;11.436;2023-12-22T07:49:29;5.22;;;1.08;;
29570;SDS011;16814;52.118;11.436;2023-12-22T07:51:56;6.45;;;1.25;;
29570;SDS011;16814;52.118;11.436;2023-12-22T07:54:25;8.13;;;1.33;;
29570;SDS011;16814;52.118;11.436;2023-12-22T07:56:50;6.68;;;1.52;;
29570;SDS011;16814;52.118;11.436;2023-12-22T07:59:17;9.33;;;1.60;;
29570;SDS011;16814;52.118;11.436;2023-12-22T08:01:43;9.48;;;1.80;;
29570;SDS011;16814;52.118;11.436;2023-12-22T08:04:08;8.30;;;1.77;;
29570;SDS011;16814;52.118;11.436;2023-12-22T08:06:35;9.18;;;1.40;;
29570;SDS011;16814;52.118;11.436;2023-12-22T08:09:09;9.63;;;1.53;;
29570;SDS011;16814;52.118;11.436;2023-12-22T08:11:35;10.60;;;1.90;;
29570;SDS011;16814;52.118;11.436;2023-12-22T08:14:02;14.80;;;1.50;;
29570;SDS011;16814;52.118;11.436;2023-12-22T08:16:29;8.50;;;1.73;;
29570;SDS011;16814;52.118;11.436;2023-12-22T08:18:55;8.35;;;1.60;;
29570;SDS011;16814;52.118;11.436;2023-12-22T08:21:24;10.98;;;1.73;;
29570;SDS011;16814;52.118;11.436;2023-12-22T08:23:51;13.65;;;2.70;;
29570;SDS011;16814;52.118;11.436;2023-12-22T08:26:18;14.30;;;2.33;;
29570;SDS011;16814;52.118;11.436;2023-12-22T08:28:48;12.68;;;2.15;;
29570;SDS011;16814;52.118;11.436;2023-12-22T08:31:16;18.83;;;1.98;;
29570;SDS011;16814;52.118;11.436;2023-12-22T08:33:44;18.00;;;2.77;;
29570;SDS011;16814;52.118;11.436;2023-12-22T08:36:12;13.52;;;3.00;;
29570;SDS011;16814;52.118;11.436;2023-12-22T08:38:39;22.45;;;5.80;;
29570;SDS011;16814;52.118;11.436;2023-12-22T08:41:06;27.98;;;7.55;;
29570;SDS011;16814;52.118;11.436;2023-12-22T08:43:37;23.70;;;6.10;;
29570;SDS011;16814;52.118;11.436;2023-12-22T08:46:04;11.75;;;2.67;;
29570;SDS011;16814;52.118;11.436;2023-12-22T08:48:31;15.60;;;3.30;;
29570;SDS011;16814;52.118;11.436;2023-12-22T08:50:58;13.18;;;2.70;;
29570;SDS011;16814;52.118;11.436;2023-12-22T08:53:25;18.38;;;3.05;;
29570;SDS011;16814;52.118;11.436;2023-12-22T08:55:55;13.73;;;2.50;;
29570;SDS011;16814;52.118;11.436;2023-12-22T08:58:21;12.07;;;2.30;;
29570;SDS011;16814;52.118;11.436;2023-12-22T09:00:47;13.65;;;2.10;;
29570;SDS011;16814;52.118;11.436;2023-12-22T09:03:12;14.87;;;2.47;;
29570;SDS011;16814;52.118;11.436;2023-12-22T09:05:38;13.35;;;2.17;;
29570;SDS011;16814;52.118;11.436;2023-12-22T09:08:05;14.07;;;2.30;;
29570;SDS011;16814;52.118;11.436;2023-12-22T09:10:33;15.27;;;2.00;;
29570;SDS011;16814;52.118;11.436;2023-12-22T09:13:01;12.27;;;2.00;;
29570;SDS011;16814;52.118;11.436;2023-12-22T09:15:28;14.83;;;2.13;;
29570;SDS011;16814;52.118;11.436;2023-12-22T09:17:54;15.63;;;2.30;;
29570;SDS011;16814;52.118;11.436;2023-12-22T09:20:22;13.38;;;2.40;;
29570;SDS011;16814;52.118;11.436;2023-12-22T09:22:50;12.35;;;1.83;;
29570;SDS011;16814;52.118;11.436;2023-12-22T09:25:23;14.48;;;2.17;;
29570;SDS011;16814;52.118;11.436;2023-12-22T09:27:49;12.38;;;2.15;;
29570;SDS011;16814;52.118;11.436;2023-12-22T09:30:17;15.33;;;2.83;;
29570;SDS011;16814;52.118;11.436;2023-12-22T09:32:44;14.23;;;1.95;;
29570;SDS011;16814;52.118;11.436;2023-12-22T09:35:14;17.10;;;2.13;;
29570;SDS011;16814;52.118;11.436;2023-12-22T09:37:40;17.67;;;2.70;;
29570;SDS011;16814;52.118;11.436;2023-12-22T09:40:05;14.68;;;2.08;;
29570;SDS011;16814;52.118;11.436;2023-12-22T09:42:37;17.08;;;2.58;;
29570;SDS011;16814;52.118;11.436;2023-12-22T09:45:08;13.73;;;2.08;;
29570;SDS011;16814;52.118;11.436;2023-12-22T09:47:36;17.43;;;2.50;;
29570;SDS011;16814;52.118;11.436;2023-12-22T09:50:06;18.95;;;3.00;;
29570;SDS011;16814;52.118;11.436;2023-12-22T09:52:33;22.58;;;3.90;;
29570;SDS011;16814;52.118;11.436;2023-12-22T09:55:07;18.45;;;3.05;;
29570;SDS011;16814;52.118;11.436;2023-12-22T09:57:35;16.38;;;3.28;;
29570;SDS011;16814;52.118;11.436;2023-12-22T10:00:06;19.13;;;2.90;;
29570;SDS011;16814;52.118;11.436;2023-12-22T10:02:39;21.97;;;3.17;;
29570;SDS011;16814;52.118;11.436;2023-12-22T10:05:06;29.30;;;4.53;;
29570;SDS011;16814;52.118;11.436;2023-12-22T10:07:32;23.70;;;3.67;;
29570;SDS011;16814;52.118;11.436;2023-12-22T10:10:00;25.75;;;4.20;;
29570;SDS011;16814;52.118;11.436;2023-12-22T10:12:29;29.08;;;4.13;;
29570;SDS011;16814;52.118;11.436;2023-12-22T10:14:59;28.88;;;4.45;;
29570;SDS011;16814;52.118;11.436;2023-12-22T10:17:25;26.38;;;5.00;;
29570;SDS011;16814;52.118;11.436;2023-12-22T10:19:53;29.58;;;4.57;;
29570;SDS011;16814;52.118;11.436;2023-12-22T10:22:21;29.80;;;4.07;;
29570;SDS011;16814;52.118;11.436;2023-12-22T10:24:50;29.80;;;4.35;;
29570;SDS011;16814;52.118;11.436;2023-12-22T10:27:16;22.45;;;3.80;;
29570;SDS011;16814;52.118;11.436;2023-12-22T10:29:48;27.88;;;3.67;;
29570;SDS011;16814;52.118;11.436;2023-12-22T10:32:17;26.95;;;4.15;;
29570;SDS011;16814;52.118;11.436;2023-12-22T10:34:44;26.00;;;3.60;;
29570;SDS011;16814;52.118;11.436;2023-12-22T10:37:11;29.27;;;4.43;;
29570;SDS011;16814;52.118;11.436;2023-12-22T10:39:38;26.58;;;4.85;;
29570;SDS011;16814;52.118;11.436;2023-12-22T10:42:06;33.75;;;4.60;;
29570;SDS011;16814;52.118;11.436;2023-12-22T10:44:34;29.20;;;4.05;;
29570;SDS011;16814;52.118;11.436;2023-12-22T10:47:00;16.63;;;2.73;;
29570;SDS011;16814;52.118;11.436;2023-12-22T10:49:29;22.08;;;3.60;;
29570;SDS011;16814;52.118;11.436;2023-12-22T10:51:57;14.00;;;2.30;;
29570;SDS011;16814;52.118;11.436;2023-12-22T10:54:23;12.57;;;2.37;;
29570;SDS011;16814;52.118;11.436;2023-12-22T10:56:50;12.75;;;1.98;;
29570;SDS011;16814;52.118;11.436;2023-12-22T10:59:19;7.50;;;1.13;;
29570;SDS011;16814;52.118;11.436;2023-12-22T11:01:53;9.65;;;1.50;;
29570;SDS011;16814;52.118;11.436;2023-12-22T11:04:25;9.15;;;1.77;;
29570;SDS011;16814;52.118;11.436;2023-12-22T11:07:02;8.60;;;1.30;;
29570;SDS011;16814;52.118;11.436;2023-12-22T11:09:31;6.93;;;1.30;;
29570;SDS011;16814;52.118;11.436;2023-12-22T11:11:58;4.75;;;1.35;;
29570;SDS011;16814;52.118;11.436;2023-12-22T11:14:28;6.15;;;1.30;;
29570;SDS011;16814;52.118;11.436;2023-12-22T11:16:57;16.85;;;1.77;;
29570;SDS011;16814;52.118;11.436;2023-12-22T11:19:27;6.90;;;2.10;;
29570;SDS011;16814;52.118;11.436;2023-12-22T11:21:59;24.40;;;9.57;;
29570;SDS011;16814;52.118;11.436;2023-12-22T11:24:29;28.65;;;12.23;;
29570;SDS011;16814;52.118;11.436;2023-12-22T11:26:57;21.63;;;9.73;;
29570;SDS011;16814;52.118;11.436;2023-12-22T11:29:26;13.40;;;6.45;;
29570;SDS011;16814;52.118;11.436;2023-12-22T11:31:54;9.18;;;3.63;;
29570;SDS011;16814;52.118;11.436;2023-12-22T11:34:23;6.13;;;1.80;;
29570;SDS011;16814;52.118;11.436;2023-12-22T11:36:53;3.67;;;0.98;;
29570;SDS011;16814;52.118;11.436;2023-12-22T11:39:22;4.60;;;1.08;;
29570;SDS011;16814;52.118;11.436;2023-12-22T11:41:49;6.03;;;1.10;;
29570;SDS011;16814;52.118;11.436;2023-12-22T11:44:18;5.57;;;1.20;;
29570;SDS011;16814;52.118;11.436;2023-12-22T11:46:47;3.40;;;0.80;;
29570;SDS011;16814;52.118;11.436;2023-12-22T11:49:13;4.18;;;0.98;;
29570;SDS011;16814;52.118;11.436;2023-12-22T11:51:41;4.80;;;1.13;;
29570;SDS011;16814;52.118;11.436;2023-12-22T12:00:38;5.97;;;1.27;;
29570;SDS011;16814;52.118;11.436;2023-12-22T12:02:54;9.38;;;1.73;;
29570;SDS011;16814;52.118;11.436;2023-12-22T12:05:20;9.80;;;1.85;;
29570;SDS011;16814;52.118;11.436;2023-12-22T12:07:49;10.55;;;2.38;;
29570;SDS011;16814;52.118;11.436;2023-12-22T12:13:11;9.40;;;1.63;;
29570;SDS011;16814;52.118;11.436;2023-12-22T12:15:41;9.73;;;1.92;;
29570;SDS011;16814;52.118;11.436;2023-12-22T12:18:07;10.50;;;2.40;;
29570;SDS011;16814;52.118;11.436;2023-12-22T12:20:34;7.95;;;2.17;;
29570;SDS011;16814;52.118;11.436;2023-12-22T12:23:06;12.65;;;1.77;;
29570;SDS011;16814;52.118;11.436;2023-12-22T12:25:32;10.85;;;1.67;;
29570;SDS011;16814;52.118;11.436;2023-12-22T12:28:01;7.90;;;1.83;;
29570;SDS011;16814;52.118;11.436;2023-12-22T12:30:29;11.17;;;1.63;;
29570;SDS011;16814;52.118;11.436;2023-12-22T12:33:05;7.03;;;1.45;;
29570;SDS011;16814;52.118;11.436;2023-12-22T12:35:34;6.57;;;1.30;;
29570;SDS011;16814;52.118;11.436;2023-12-22T12:38:05;4.55;;;0.90;;
29570;SDS011;16814;52.118;11.436;2023-12-22T12:40:31;4.78;;;0.95;;
29570;SDS011;16814;52.118;11.436;2023-12-22T12:43:00;3.60;;;0.80;;
29570;SDS011;16814;52.118;11.436;2023-12-22T12:45:29;5.15;;;0.80;;
29570;SDS011;16814;52.118;11.436;2023-12-22T12:47:57;3.58;;;0.65;;
29570;SDS011;16814;52.118;11.436;2023-12-22T12:50:25;4.53;;;0.80;;
29570;SDS011;16814;52.118;11.436;2023-12-22T12:52:59;2.20;;;0.70;;
29570;SDS011;16814;52.118;11.436;2023-12-22T12:55:26;3.53;;;0.83;;
29570;SDS011;16814;52.118;11.436;2023-12-22T12:57:54;4.07;;;0.83;;
29570;SDS011;16814;52.118;11.436;2023-12-22T13:00:33;4.60;;;0.90;;
29570;SDS011;16814;52.118;11.436;2023-12-22T13:03:06;3.83;;;1.00;;
29570;SDS011;16814;52.118;11.436;2023-12-22T13:05:31;3.20;;;0.80;;
29570;SDS011;16814;52.118;11.436;2023-12-22T13:08:10;2.13;;;0.90;;
29570;SDS011;16814;52.118;11.436;2023-12-22T13:10:37;7.82;;;1.30;;
29570;SDS011;16814;52.118;11.436;2023-12-22T13:13:04;5.38;;;1.00;;
29570;SDS011;16814;52.118;11.436;2023-12-22T13:15:33;4.63;;;0.93;;
29570;SDS011;16814;52.118;11.436;2023-12-22T13:17:59;5.05;;;0.90;;
29570;SDS011;16814;52.118;11.436;2023-12-22T13:20:27;4.82;;;1.13;;
29570;SDS011;16814;52.118;11.436;2023-12-22T13:22:55;6.80;;;1.30;;
29570;SDS011;16814;52.118;11.436;2023-12-22T13:25:27;4.55;;;0.80;;
29570;SDS011;16814;52.118;11.436;2023-12-22T13:28:09;7.40;;;1.25;;
29570;SDS011;16814;52.118;11.436;2023-12-22T13:30:39;3.47;;;1.07;;
29570;SDS011;16814;52.118;11.436;2023-12-22T13:33:10;4.72;;;1.10;;
29570;SDS011;16814;52.118;11.436;2023-12-22T13:35:37;6.20;;;1.20;;
29570;SDS011;16814;52.118;11.436;2023-12-22T13:38:09;5.07;;;1.27;;
29570;SDS011;16814;52.118;11.436;2023-12-22T13:40:36;5.40;;;1.27;;
29570;SDS011;16814;52.118;11.436;2023-12-22T13:43:03;6.75;;;1.30;;
29570;SDS011;16814;52.118;11.436;2023-12-22T13:45:29;9.20;;;1.70;;
29570;SDS011;16814;52.118;11.436;2023-12-22T13:47:59;7.45;;;1.27;;
29570;SDS011;16814;52.118;11.436;2023-12-22T13:50:25;4.50;;;1.30;;
29570;SDS011;16814;52.118;11.436;2023-12-22T13:52:51;8.13;;;1.33;;
29570;SDS011;16814;52.118;11.436;2023-12-22T13:55:20;9.40;;;1.30;;
29570;SDS011;16814;52.118;11.436;2023-12-22T13:57:58;7.35;;;1.30;;
29570;SDS011;16814;52.118;11.436;2023-12-22T14:00:27;7.70;;;1.17;;
29570;SDS011;16814;52.118;11.436;2023-12-22T14:02:54;6.10;;;1.25;;
29570;SDS011;16814;52.118;11.436;2023-12-22T14:05:21;5.13;;;1.30;;
29570;SDS011;16814;52.118;11.436;2023-12-22T14:07:48;7.25;;;1.70;;
29570;SDS011;16814;52.118;11.436;2023-12-22T14:10:16;8.77;;;1.40;;
29570;SDS011;16814;52.118;11.436;2023-12-22T14:12:44;6.45;;;1.65;;
29570;SDS011;16814;52.118;11.436;2023-12-22T14:15:11;4.32;;;1.40;;
29570;SDS011;16814;52.118;11.436;2023-12-22T14:17:39;5.20;;;1.10;;
29570;SDS011;16814;52.118;11.436;2023-12-22T14:20:08;10.48;;;1.60;;
29570;SDS011;16814;52.118;11.436;2023-12-22T14:22:41;10.07;;;1.70;;
29570;SDS011;16814;52.118;11.436;2023-12-22T14:25:07;12.73;;;1.83;;
29570;SDS011;16814;52.118;11.436;2023-12-22T14:27:33;11.27;;;2.25;;
29570;SDS011;16814;52.118;11.436;2023-12-22T14:30:01;11.27;;;2.25;;
29570;SDS011;16814;52.118;11.436;2023-12-22T14:32:27;14.98;;;2.75;;
29570;SDS011;16814;52.118;11.436;2023-12-22T14:34:55;9.45;;;1.90;;
29570;SDS011;16814;52.118;11.436;2023-12-22T14:37:22;15.38;;;1.98;;
29570;SDS011;16814;52.118;11.436;2023-12-22T14:39:50;9.17;;;1.97;;